Weather History for Crookston, MN

Change the Weather History Date:

Tuesday, January 29, 2013

  Actual Average Record
Temperature  
Mean Temperature 16 °F -  
Max Temperature 21 °F 15 °F 30 °F (2005)
Min Temperature 10 °F 1 °F -31 °F (2004)
Degree Days  
Heating Degree Days 50    
Moisture  
Dew Point 16 °F    
Average Humidity 92    
Maximum Humidity 100    
Minimum Humidity 79    
Precipitation  
Precipitation 0.00 in - - ()
Sea Level Pressure  
Sea Level Pressure 29.80 in    
Wind  
Wind Speed 11 mph (North)    
Max Wind Speed 28 mph    
Max Gust Speed 32 mph    
Visibility 6 miles    
Events Fog , Snow    
Averages and records for this station are not official NWS values.
T = Trace of Precipitation, MM = Missing Value Source: NWS Daily Summary

Daily Weather History Graph

Daily Weather History Graph

Search for Another Location

Airport:

Trip Planner

Search our weather history database for the weather conditions in past years. The results will help you decide how hot, cold, wet, or windy it might be!

Date:

Astronomy

Jan. 29, 2013 Rise Set
Actual Time 7:57 AM CST 5:22 PM CST
Civil Twilight 7:23 AM CST 5:56 PM CST
Nautical Twilight 6:46 AM CST 6:33 PM CST
Astronomical Twilight 6:10 AM CST 7:10 PM CST
Moon 8:37 PM CST (1/29) 8:39 AM CST (1/29)
Length of Visible Light 10h 32m
Length of Day
9h 25m
Waning Gibbous, 93% of the Moon is Illuminated
Jan 29
Waning Gibbous
Feb 3
Last Quarter
Feb 10
New
Feb 17
First Quarter
Feb 25
Full

Hourly Weather History & Observations

Time (CST) Temp. Windchill Dew Point Humidity Pressure Visibility Wind Dir Wind Speed Gust Speed Precip Events Conditions
12:14 AM 21.2 °F - 19.4 °F 93% 29.73 in 4.0 mi Calm Calm - N/A   Scattered Clouds
12:35 AM 21.2 °F 16.4 °F 19.4 °F 93% 29.73 in 4.0 mi NNW 3.5 mph - N/A   Clear
12:55 AM 21.2 °F 16.4 °F 19.4 °F 93% 29.73 in 4.0 mi NNW 3.5 mph - N/A   Clear
1:14 AM 21.2 °F 13.6 °F 21.2 °F 100% 29.71 in 5.0 mi NNW 5.8 mph - N/A   Clear
1:35 AM 21.2 °F 12.6 °F 19.4 °F 93% 29.69 in 5.0 mi North 6.9 mph - N/A   Clear
1:55 AM 21.2 °F 11.7 °F 19.4 °F 93% 29.69 in 5.0 mi North 8.1 mph - N/A   Clear
2:14 AM 19.4 °F 9.5 °F 19.4 °F 100% 29.69 in 7.0 mi North 8.1 mph - N/A   Clear
2:54 AM 19.4 °F 9.5 °F 17.6 °F 93% 29.70 in 7.0 mi North 8.1 mph - N/A   Clear
3:14 AM 19.4 °F 10.4 °F 17.6 °F 93% 29.69 in 5.0 mi North 6.9 mph - N/A   Clear
3:35 AM 19.4 °F 8.6 °F 17.6 °F 93% 29.69 in 5.0 mi North 9.2 mph - N/A   Clear
3:59 AM 19.4 °F 9.5 °F 17.6 °F 93% 29.70 in 5.0 mi NNW 8.1 mph - N/A   Clear
4:14 AM 19.4 °F 10.4 °F 17.6 °F 93% 29.71 in 4.0 mi NNW 6.9 mph - N/A   Scattered Clouds
4:35 AM 19.4 °F 9.5 °F 19.4 °F 100% 29.70 in 0.8 mi North 8.1 mph - N/A   Overcast
4:55 AM 19.4 °F 9.5 °F 19.4 °F 100% 29.70 in 0.8 mi North 8.1 mph - N/A   Overcast
5:14 AM 21.2 °F 11.7 °F 19.4 °F 93% 29.71 in 1.5 mi North 8.1 mph - N/A   Overcast
5:35 AM 21.2 °F 10.9 °F 19.4 °F 93% 29.69 in 0.2 mi North 9.2 mph - N/A Fog Light Freezing Fog
6:15 AM 21.2 °F 10.1 °F 19.4 °F 93% 29.69 in 0.8 mi North 10.4 mph - N/A   Overcast
6:35 AM 21.2 °F 10.9 °F 19.4 °F 93% 29.69 in 4.0 mi North 9.2 mph - N/A   Mostly Cloudy
6:54 AM 19.4 °F 8.6 °F 19.4 °F 100% 29.69 in 7.0 mi NNW 9.2 mph - N/A   Mostly Cloudy
7:15 AM 19.4 °F 9.5 °F 17.6 °F 93% 29.71 in 7.0 mi NNW 8.1 mph - N/A   Mostly Cloudy
7:35 AM 19.4 °F 9.5 °F 17.6 °F 93% 29.72 in 7.0 mi NNW 8.1 mph - N/A   Scattered Clouds
7:54 AM 19.4 °F 9.5 °F 17.6 °F 93% 29.72 in 7.0 mi NNW 8.1 mph - N/A   Clear
8:15 AM 19.4 °F 10.4 °F 17.6 °F 93% 29.73 in 4.0 mi NNW 6.9 mph - N/A   Clear
8:35 AM 19.4 °F 10.4 °F 17.6 °F 93% 29.73 in 4.0 mi NNW 6.9 mph - N/A   Clear
8:54 AM 19.4 °F 10.4 °F 19.4 °F 100% 29.74 in 4.0 mi NNW 6.9 mph - N/A   Clear
9:15 AM 19.4 °F 9.5 °F 19.4 °F 100% 29.74 in 4.0 mi North 8.1 mph - N/A   Clear
9:35 AM 21.2 °F 10.9 °F 19.4 °F 93% 29.75 in 4.0 mi NNW 9.2 mph - N/A   Clear
9:54 AM 21.2 °F 10.9 °F 19.4 °F 93% 29.76 in 4.0 mi North 9.2 mph - N/A   Clear
10:15 AM 21.2 °F 10.9 °F 19.4 °F 93% 29.76 in 4.0 mi NNW 9.2 mph - N/A   Clear
10:34 AM 21.2 °F 10.1 °F 21.2 °F 100% 29.77 in 3.0 mi NNW 10.4 mph - N/A   Mist
10:55 AM 21.2 °F 8.9 °F 21.2 °F 100% 29.78 in 3.0 mi North 12.7 mph - N/A   Mist
11:15 AM 21.2 °F 8.9 °F 21.2 °F 100% 29.78 in 2.0 mi North 12.7 mph - N/A   Mist
11:34 AM 21.2 °F 8.3 °F 21.2 °F 100% 29.77 in 2.0 mi North 13.8 mph - N/A   Mist
11:55 AM 21.2 °F 7.8 °F 21.2 °F 100% 29.77 in 1.5 mi North 15.0 mph - N/A   Mist
12:15 PM 21.2 °F 6.8 °F 21.2 °F 100% 29.77 in 3.0 mi North 17.3 mph - N/A   Mist
12:34 PM 21.2 °F 7.3 °F 21.2 °F 100% 29.78 in 4.0 mi North 16.1 mph - N/A   Clear
12:55 PM 21.2 °F 9.5 °F 21.2 °F 100% 29.79 in 4.0 mi North 11.5 mph - N/A   Clear
1:14 PM 21.2 °F 7.3 °F 19.4 °F 93% 29.80 in 5.0 mi North 16.1 mph - N/A   Clear
1:35 PM 21.2 °F 8.3 °F 19.4 °F 93% 29.80 in 4.0 mi North 13.8 mph - N/A   Clear
1:54 PM 21.2 °F 7.8 °F 19.4 °F 93% 29.80 in 4.0 mi North 15.0 mph - N/A   Scattered Clouds
2:14 PM 21.2 °F 7.8 °F 19.4 °F 93% 29.79 in 4.0 mi North 15.0 mph - N/A   Scattered Clouds
2:35 PM 21.2 °F 6.8 °F 19.4 °F 93% 29.80 in 5.0 mi North 17.3 mph - N/A   Scattered Clouds
2:54 PM 21.2 °F 6.0 °F 17.6 °F 86% 29.80 in 7.0 mi North 19.6 mph - N/A   Scattered Clouds
3:15 PM 21.2 °F 5.6 °F 17.6 °F 86% 29.81 in 7.0 mi North 20.7 mph - N/A   Mostly Cloudy
3:54 PM 19.4 °F 4.1 °F 17.6 °F 93% 29.83 in 7.0 mi North 18.4 mph - N/A Snow Light Snow
4:15 PM 19.4 °F 3.6 °F 15.8 °F 86% 29.84 in 5.0 mi North 19.6 mph - N/A Snow Light Snow
4:35 PM 17.6 °F 1.7 °F 15.8 °F 93% 29.86 in 7.0 mi North 18.4 mph - N/A Snow Light Snow
4:54 PM 17.6 °F 2.2 °F 15.8 °F 93% 29.87 in 7.0 mi North 17.3 mph - N/A Snow Light Snow
5:15 PM 17.6 °F 1.3 °F 14.0 °F 86% 29.87 in 10.0 mi North 19.6 mph - N/A Snow Light Snow
5:35 PM 15.8 °F -1.5 °F 12.2 °F 86% 29.87 in 10.0 mi North 20.7 mph 27.6 mph N/A   Overcast
5:54 PM 15.8 °F -0.6 °F 12.2 °F 86% 29.88 in 10.0 mi North 18.4 mph - N/A Snow Light Snow
6:15 PM 15.8 °F -1.5 °F 12.2 °F 86% 29.89 in 10.0 mi North 20.7 mph - N/A   Overcast
6:35 PM 14.0 °F -4.7 °F 10.4 °F 86% 29.89 in 10.0 mi North 23.0 mph - N/A   Overcast
6:54 PM 14.0 °F -4.7 °F 10.4 °F 86% 29.88 in 10.0 mi North 23.0 mph - N/A   Overcast
7:15 PM 14.0 °F -5.8 °F 10.4 °F 86% 29.88 in 10.0 mi North 26.5 mph 29.9 mph N/A   Overcast
7:35 PM 14.0 °F -5.1 °F 10.4 °F 86% 29.90 in 10.0 mi North 24.2 mph - N/A   Overcast
7:54 PM 14.0 °F -5.1 °F 10.4 °F 86% 29.92 in 7.0 mi North 24.2 mph 28.8 mph N/A   Overcast
8:15 PM 14.0 °F -3.0 °F 10.4 °F 86% 29.94 in 10.0 mi North 18.4 mph 26.5 mph N/A Snow Light Snow
8:35 PM 14.0 °F -3.0 °F 10.4 °F 86% 29.96 in 7.0 mi North 18.4 mph 24.2 mph N/A Snow Light Snow
8:54 PM 12.2 °F -5.8 °F 10.4 °F 92% 29.96 in 10.0 mi NNW 19.6 mph 25.3 mph N/A Snow Light Snow
9:15 PM 12.2 °F -7.1 °F 8.6 °F 85% 29.95 in 7.0 mi North 23.0 mph - N/A   Overcast
9:35 PM 12.2 °F -7.1 °F 8.6 °F 85% 29.94 in 7.0 mi North 23.0 mph - N/A   Overcast
9:54 PM 12.2 °F -8.2 °F 8.6 °F 85% 29.93 in 4.0 mi North 26.5 mph 31.1 mph N/A Snow Light Snow
10:15 PM 12.2 °F -8.6 °F 8.6 °F 85% 29.93 in 10.0 mi North 27.6 mph 31.1 mph N/A   Overcast
10:34 PM 12.2 °F -7.9 °F 8.6 °F 85% 29.93 in 7.0 mi North 25.3 mph 32.2 mph N/A   Overcast
10:55 PM 12.2 °F -8.6 °F 6.8 °F 79% 29.93 in 10.0 mi North 27.6 mph 31.1 mph N/A   Overcast
11:15 PM 12.2 °F -6.7 °F 6.8 °F 79% 29.94 in 10.0 mi North 21.9 mph 28.8 mph N/A   Overcast
11:34 PM 10.4 °F -9.5 °F 6.8 °F 85% 29.94 in 7.0 mi North 23.0 mph - N/A   Overcast
11:55 PM 10.4 °F -8.2 °F 6.8 °F 85% 29.96 in 4.0 mi North 19.6 mph - N/A   Overcast